Time;durP1;ratioP1;P1;durP2;ratioP2;P2;SDS_P1;SDS_P2;PMS_P1;PMS_P2;Temp;Humidity;BMP_temperature;BMP_pressure;BME280_temperature;BME280_humidity;BME280_pressure;Samples;Min_cycle;Max_cycle;Signal;HPM_P1;HPM_P2
2023/04/24 00:02:16;;;;;;;0.60;0.60;;;;;;;;;;5035471;28;20484;-59
2023/04/24 00:04:44;;;;;;;0.60;0.60;;;;;;;;;;5035435;28;20515;-59
2023/04/24 00:07:10;;;;;;;0.67;0.67;;;;;;;;;;5035514;28;20418;-59
2023/04/24 00:09:37;;;;;;;0.70;0.70;;;;;;;;;;5034258;28;20695;-58
2023/04/24 00:12:05;;;;;;;0.60;0.60;;;;;;;;;;5035369;28;20412;-59
2023/04/24 00:14:31;;;;;;;0.80;0.80;;;;;;;;;;5035290;28;20431;-58
2023/04/24 00:16:57;;;;;;;1.03;0.73;;;;;;;;;;5033563;28;20498;-58
2023/04/24 00:19:23;;;;;;;0.70;0.70;;;;;;;;;;5035126;28;20511;-58
2023/04/24 00:21:49;;;;;;;0.70;0.70;;;;;;;;;;5033870;28;20416;-58
2023/04/24 00:24:16;;;;;;;3.43;0.97;;;;;;;;;;5035093;28;20487;-59
2023/04/24 00:26:42;;;;;;;0.90;0.60;;;;;;;;;;5035225;28;20798;-58
2023/04/24 00:29:08;;;;;;;0.77;0.77;;;;;;;;;;5033731;28;20442;-58
2023/04/24 00:31:34;;;;;;;0.97;0.70;;;;;;;;;;5035126;28;20495;-59
2023/04/24 00:34:01;;;;;;;0.53;0.53;;;;;;;;;;5034803;28;20420;-59
2023/04/24 00:36:30;;;;;;;0.70;0.70;;;;;;;;;;5034925;28;20442;-58
2023/04/24 00:38:56;;;;;;;0.80;0.80;;;;;;;;;;5034841;28;20495;-58
2023/04/24 00:41:28;;;;;;;0.67;0.67;;;;;;;;;;5034732;28;20412;-58
2023/04/24 00:43:54;;;;;;;1.17;0.70;;;;;;;;;;5034873;28;20442;-58
2023/04/24 00:46:21;;;;;;;2.97;0.70;;;;;;;;;;5034494;28;20558;-58
2023/04/24 00:48:47;;;;;;;1.93;1.00;;;;;;;;;;5034815;28;20407;-58
2023/04/24 00:51:13;;;;;;;0.80;0.80;;;;;;;;;;5034609;28;20416;-59
2023/04/24 00:53:39;;;;;;;1.70;0.80;;;;;;;;;;5034580;28;20501;-58
2023/04/24 00:56:07;;;;;;;0.77;0.77;;;;;;;;;;5033644;28;20443;-59
2023/04/24 00:58:33;;;;;;;1.23;0.70;;;;;;;;;;5034540;28;20523;-59
2023/04/24 01:01:02;;;;;;;1.10;0.70;;;;;;;;;;5034822;28;20824;-59
2023/04/24 01:03:30;;;;;;;3.00;0.67;;;;;;;;;;5034288;28;20419;-59
2023/04/24 01:05:56;;;;;;;0.60;0.60;;;;;;;;;;5034344;28;20490;-58
2023/04/24 01:08:24;;;;;;;0.70;0.70;;;;;;;;;;5034244;28;20420;-59
2023/04/24 01:10:52;;;;;;;2.30;0.60;;;;;;;;;;5034197;28;20800;-58
2023/04/24 01:13:18;;;;;;;0.63;0.63;;;;;;;;;;5034309;28;20396;-58
2023/04/24 01:15:47;;;;;;;0.63;0.63;;;;;;;;;;5034293;28;20439;-57
2023/04/24 01:18:13;;;;;;;1.33;0.80;;;;;;;;;;5034308;28;20435;-59
2023/04/24 01:20:40;;;;;;;0.77;0.77;;;;;;;;;;5034059;28;20438;-59
2023/04/24 01:23:10;;;;;;;0.97;0.80;;;;;;;;;;5034170;28;20422;-58
2023/04/24 01:25:36;;;;;;;0.50;0.50;;;;;;;;;;5033963;28;20482;-57
2023/04/24 01:28:02;;;;;;;2.00;0.60;;;;;;;;;;5034473;28;20401;-59
2023/04/24 01:30:33;;;;;;;1.07;0.70;;;;;;;;;;5034153;28;20427;-59
2023/04/24 01:32:59;;;;;;;0.60;0.60;;;;;;;;;;5034197;28;20477;-58
2023/04/24 01:35:27;;;;;;;0.60;0.60;;;;;;;;;;5032916;28;20420;-59
2023/04/24 01:37:53;;;;;;;0.60;0.60;;;;;;;;;;5034160;28;20446;-59
2023/04/24 01:40:19;;;;;;;0.67;0.50;;;;;;;;;;5033816;28;20408;-59
2023/04/24 01:42:46;;;;;;;2.80;0.70;;;;;;;;;;5033742;28;20930;-58
2023/04/24 01:45:13;;;;;;;0.80;0.80;;;;;;;;;;5033483;28;20494;-58
2023/04/24 01:47:39;;;;;;;0.60;0.60;;;;;;;;;;5033575;28;20418;-59
2023/04/24 01:50:07;;;;;;;0.60;0.60;;;;;;;;;;5033579;28;20914;-59
2023/04/24 01:52:35;;;;;;;0.90;0.90;;;;;;;;;;5033519;28;20423;-59
2023/04/24 01:55:01;;;;;;;0.50;0.50;;;;;;;;;;5033399;28;20639;-59
2023/04/24 01:57:30;;;;;;;1.10;0.90;;;;;;;;;;5033452;28;20915;-58
2023/04/24 01:59:56;;;;;;;0.70;0.70;;;;;;;;;;5033327;28;20515;-59
2023/04/24 02:02:23;;;;;;;0.80;0.80;;;;;;;;;;5033269;28;20777;-58
2023/04/24 02:04:49;;;;;;;1.77;0.80;;;;;;;;;;5033436;28;20450;-59
2023/04/24 02:07:15;;;;;;;1.00;0.77;;;;;;;;;;5033271;28;20412;-59
2023/04/24 02:09:41;;;;;;;1.00;0.90;;;;;;;;;;5033010;28;20422;-59
2023/04/24 02:12:10;;;;;;;2.40;1.00;;;;;;;;;;5033082;28;20806;-59
2023/04/24 02:14:38;;;;;;;3.07;1.23;;;;;;;;;;5032982;28;20454;-59
2023/04/24 02:17:04;;;;;;;0.77;0.70;;;;;;;;;;5033047;28;20459;-58
2023/04/24 02:19:30;;;;;;;2.00;0.70;;;;;;;;;;5032975;28;20523;-59
2023/04/24 02:21:56;;;;;;;1.03;0.73;;;;;;;;;;5032919;28;20424;-59
2023/04/24 02:24:22;;;;;;;1.00;0.70;;;;;;;;;;5032982;28;20434;-59
2023/04/24 02:26:48;;;;;;;0.73;0.73;;;;;;;;;;5032681;28;20501;-58
2023/04/24 02:29:15;;;;;;;1.17;1.17;;;;;;;;;;5031533;28;20424;-59
2023/04/24 02:31:43;;;;;;;1.00;1.00;;;;;;;;;;5032754;28;20419;-58
2023/04/24 02:34:09;;;;;;;1.13;0.80;;;;;;;;;;5032887;28;20420;-59
2023/04/24 02:36:35;;;;;;;0.90;0.90;;;;;;;;;;5032707;28;20515;-59
2023/04/24 02:39:01;;;;;;;2.20;0.73;;;;;;;;;;5032721;28;20439;-59
2023/04/24 02:41:31;;;;;;;1.67;1.20;;;;;;;;;;5032628;28;20498;-59
2023/04/24 02:44:02;;;;;;;2.10;1.20;;;;;;;;;;5032683;28;20442;-59
2023/04/24 02:46:30;;;;;;;1.70;0.80;;;;;;;;;;5032643;28;20448;-59
2023/04/24 02:48:56;;;;;;;1.07;1.07;;;;;;;;;;5032569;28;20442;-59
2023/04/24 02:51:22;;;;;;;2.83;0.70;;;;;;;;;;5032395;28;20910;-59
2023/04/24 02:53:48;;;;;;;2.50;0.90;;;;;;;;;;5031185;28;20833;-59
2023/04/24 02:56:14;;;;;;;0.83;0.63;;;;;;;;;;5032232;28;20447;-59
2023/04/24 02:58:40;;;;;;;3.07;0.80;;;;;;;;;;5031115;28;20439;-59
2023/04/24 03:01:06;;;;;;;0.60;0.60;;;;;;;;;;5032359;28;20447;-59
2023/04/24 03:03:37;;;;;;;3.83;0.90;;;;;;;;;;5032498;28;20416;-59
2023/04/24 03:06:05;;;;;;;1.20;0.87;;;;;;;;;;5032185;28;20550;-59
2023/04/24 03:08:31;;;;;;;0.87;0.70;;;;;;;;;;5032322;28;20430;-59
2023/04/24 03:10:57;;;;;;;0.70;0.70;;;;;;;;;;5032195;28;20487;-59
2023/04/24 03:13:23;;;;;;;3.13;1.10;;;;;;;;;;5032282;28;20891;-59
2023/04/24 03:15:49;;;;;;;3.70;0.80;;;;;;;;;;5032102;28;20427;-59
2023/04/24 03:18:17;;;;;;;1.60;1.00;;;;;;;;;;5032163;28;20439;-59
2023/04/24 03:20:46;;;;;;;10.03;1.00;;;;;;;;;;5031748;28;20888;-59
2023/04/24 03:23:12;;;;;;;3.80;0.90;;;;;;;;;;5032030;28;20469;-59
2023/04/24 03:25:38;;;;;;;1.70;0.80;;;;;;;;;;5032003;28;20558;-59
2023/04/24 03:28:04;;;;;;;1.70;0.80;;;;;;;;;;5032231;28;20487;-58
2023/04/24 03:30:30;;;;;;;1.50;0.83;;;;;;;;;;5032082;28;20411;-59
2023/04/24 03:32:56;;;;;;;1.77;0.73;;;;;;;;;;5032123;28;20439;-58
2023/04/24 03:35:22;;;;;;;0.90;0.90;;;;;;;;;;5031846;28;20440;-59
2023/04/24 03:37:48;;;;;;;0.90;0.90;;;;;;;;;;5030624;28;20423;-58
2023/04/24 03:40:14;;;;;;;0.97;0.90;;;;;;;;;;5031948;28;20422;-59
2023/04/24 03:42:40;;;;;;;0.80;0.80;;;;;;;;;;5031982;28;20460;-58
2023/04/24 03:45:09;;;;;;;1.17;0.90;;;;;;;;;;5030419;28;20770;-59
2023/04/24 03:47:35;;;;;;;1.43;1.33;;;;;;;;;;5031942;28;20482;-59
2023/04/24 03:50:01;;;;;;;1.00;0.73;;;;;;;;;;5030613;28;20479;-59
2023/04/24 03:52:27;;;;;;;2.60;1.00;;;;;;;;;;5031953;28;20415;-58
2023/04/24 03:54:53;;;;;;;3.13;1.10;;;;;;;;;;5031802;28;20438;-59
2023/04/24 03:57:19;;;;;;;2.13;0.77;;;;;;;;;;5031723;28;20455;-59
2023/04/24 03:59:45;;;;;;;3.73;0.87;;;;;;;;;;5032147;28;20431;-59
2023/04/24 04:02:11;;;;;;;3.30;1.37;;;;;;;;;;5030323;28;20452;-59
2023/04/24 04:04:37;;;;;;;3.33;1.00;;;;;;;;;;5032069;28;20490;-59
2023/04/24 04:07:03;;;;;;;0.93;0.93;;;;;;;;;;5031518;28;20490;-57
2023/04/24 04:09:32;;;;;;;3.70;1.10;;;;;;;;;;5031561;28;20835;-59
2023/04/24 04:11:58;;;;;;;9.20;1.60;;;;;;;;;;5031583;28;20419;-59
2023/04/24 04:14:24;;;;;;;0.80;0.80;;;;;;;;;;5031814;28;20435;-58
2023/04/24 04:16:50;;;;;;;7.30;1.00;;;;;;;;;;5031472;28;20428;-57
2023/04/24 04:19:16;;;;;;;1.57;0.90;;;;;;;;;;5031642;28;20435;-58
2023/04/24 04:21:42;;;;;;;1.83;1.20;;;;;;;;;;5031554;28;20422;-58
2023/04/24 04:24:11;;;;;;;14.97;11.00;;;;;;;;;;5030251;28;20486;-58
2023/04/24 04:26:40;;;;;;;9.43;6.30;;;;;;;;;;5031402;28;20485;-57
2023/04/24 04:29:06;;;;;;;1.77;1.67;;;;;;;;;;5031753;28;20496;-58
2023/04/24 04:31:32;;;;;;;1.67;1.20;;;;;;;;;;5033005;28;20416;-58
2023/04/24 04:33:58;;;;;;;4.03;1.47;;;;;;;;;;5035374;28;20442;-58
2023/04/24 04:36:25;;;;;;;1.37;1.20;;;;;;;;;;5033890;28;20450;-58
2023/04/24 04:38:51;;;;;;;1.40;1.33;;;;;;;;;;5035328;28;20479;-59
2023/04/24 04:41:18;;;;;;;2.10;1.80;;;;;;;;;;5035021;28;20526;-59
2023/04/24 04:43:47;;;;;;;2.33;1.43;;;;;;;;;;5035357;28;20431;-58
2023/04/24 04:46:13;;;;;;;2.00;1.30;;;;;;;;;;5034972;28;20467;-58
2023/04/24 04:48:41;;;;;;;1.20;1.20;;;;;;;;;;5035123;28;20493;-59
2023/04/24 04:51:07;;;;;;;1.50;1.40;;;;;;;;;;5034807;28;20427;-59
2023/04/24 04:53:33;;;;;;;13.13;5.97;;;;;;;;;;5034640;28;20442;-59
2023/04/24 04:55:59;;;;;;;1.30;1.30;;;;;;;;;;5034354;28;20442;-59
2023/04/24 04:58:25;;;;;;;2.60;1.40;;;;;;;;;;5034584;28;20431;-59
2023/04/24 05:00:52;;;;;;;1.70;1.60;;;;;;;;;;5033146;28;20922;-59
2023/04/24 05:03:18;;;;;;;3.23;1.60;;;;;;;;;;5034525;28;20446;-58
2023/04/24 05:05:44;;;;;;;1.90;1.43;;;;;;;;;;5034465;28;21006;-57
2023/04/24 05:08:10;;;;;;;1.40;1.40;;;;;;;;;;5034634;28;20499;-58
2023/04/24 05:10:36;;;;;;;1.60;1.50;;;;;;;;;;5034516;28;20919;-59
2023/04/24 05:13:03;;;;;;;1.60;1.50;;;;;;;;;;5034263;28;20404;-59
2023/04/24 05:15:30;;;;;;;2.17;1.90;;;;;;;;;;5034360;28;20435;-59
2023/04/24 05:17:56;;;;;;;4.17;2.83;;;;;;;;;;5034726;28;20784;-58
2023/04/24 05:20:22;;;;;;;2.13;2.00;;;;;;;;;;5033058;28;20456;-58
2023/04/24 05:22:50;;;;;;;2.07;1.97;;;;;;;;;;5034539;28;20418;-59
2023/04/24 05:25:16;;;;;;;2.20;2.10;;;;;;;;;;5034392;28;20420;-58
2023/04/24 05:27:42;;;;;;;1.90;1.80;;;;;;;;;;5034446;28;20498;-58
2023/04/24 05:30:09;;;;;;;3.07;2.13;;;;;;;;;;5034001;28;20412;-58
2023/04/24 05:32:35;;;;;;;2.20;2.10;;;;;;;;;;5033897;28;20436;-59
2023/04/24 05:35:01;;;;;;;4.47;2.30;;;;;;;;;;5034386;28;20546;-59
2023/04/24 05:37:27;;;;;;;4.20;2.13;;;;;;;;;;5032955;28;20460;-58
2023/04/24 05:39:55;;;;;;;2.77;2.00;;;;;;;;;;5034570;28;20400;-59
2023/04/24 05:42:24;;;;;;;2.70;2.03;;;;;;;;;;5033556;28;20398;-59
2023/04/24 05:44:50;;;;;;;4.93;2.87;;;;;;;;;;5034163;28;20754;-59
2023/04/24 05:47:16;;;;;;;8.73;2.50;;;;;;;;;;5033054;28;20465;-58
2023/04/24 05:49:42;;;;;;;2.57;2.40;;;;;;;;;;5033925;28;20412;-59
2023/04/24 05:52:08;;;;;;;9.23;2.43;;;;;;;;;;5033555;28;20507;-59
2023/04/24 05:54:35;;;;;;;2.77;2.57;;;;;;;;;;5032867;28;20432;-59
2023/04/24 05:57:07;;;;;;;2.40;2.30;;;;;;;;;;5033586;28;20424;-59
2023/04/24 05:59:33;;;;;;;2.70;2.50;;;;;;;;;;5032225;28;20531;-59
2023/04/24 06:01:59;;;;;;;5.63;3.50;;;;;;;;;;5033410;28;21105;-59
2023/04/24 06:04:25;;;;;;;2.60;2.50;;;;;;;;;;5033202;28;20424;-59
2023/04/24 06:06:55;;;;;;;4.10;2.70;;;;;;;;;;5033090;28;20471;-59
2023/04/24 06:09:24;;;;;;;4.43;2.73;;;;;;;;;;5033227;28;20850;-59
2023/04/24 06:11:54;;;;;;;3.23;3.00;;;;;;;;;;5033206;28;20428;-59
2023/04/24 06:14:20;;;;;;;3.17;3.07;;;;;;;;;;5033214;28;20891;-58
2023/04/24 06:16:46;;;;;;;4.50;3.07;;;;;;;;;;5031764;28;20526;-59
2023/04/24 06:19:12;;;;;;;2.83;2.50;;;;;;;;;;5033183;28;20510;-59
2023/04/24 06:21:38;;;;;;;2.90;2.70;;;;;;;;;;5032994;28;20440;-58
2023/04/24 06:24:04;;;;;;;3.33;3.17;;;;;;;;;;5032997;28;20861;-59
2023/04/24 06:26:33;;;;;;;7.13;3.23;;;;;;;;;;5032864;28;20463;-58
2023/04/24 06:29:00;;;;;;;4.70;3.10;;;;;;;;;;5032879;28;20478;-59
2023/04/24 06:31:26;;;;;;;2.17;2.17;;;;;;;;;;5032943;28;20416;-59
2023/04/24 06:33:52;;;;;;;3.73;3.40;;;;;;;;;;5032901;28;20459;-59
2023/04/24 06:36:18;;;;;;;4.50;2.70;;;;;;;;;;5032726;28;20847;-59
2023/04/24 06:38:46;;;;;;;7.60;2.90;;;;;;;;;;5032693;28;20455;-58
2023/04/24 06:41:15;;;;;;;3.27;3.17;;;;;;;;;;5032547;28;20420;-58
2023/04/24 06:43:41;;;;;;;3.67;3.37;;;;;;;;;;5032502;28;20895;-58
2023/04/24 06:46:07;;;;;;;3.87;2.90;;;;;;;;;;5032435;28;20935;-57
2023/04/24 06:48:33;;;;;;;2.77;2.57;;;;;;;;;;5032248;28;20922;-58
2023/04/24 06:51:04;;;;;;;2.57;2.47;;;;;;;;;;5032260;28;20408;-57
2023/04/24 06:53:30;;;;;;;2.97;2.80;;;;;;;;;;5032329;28;20409;-58
2023/04/24 06:55:58;;;;;;;3.40;3.20;;;;;;;;;;5031981;28;20461;-57
2023/04/24 06:58:25;;;;;;;3.00;2.70;;;;;;;;;;5032526;28;20494;-57
2023/04/24 07:00:51;;;;;;;3.60;2.53;;;;;;;;;;5032462;28;20440;-58
2023/04/24 07:03:17;;;;;;;2.60;2.60;;;;;;;;;;5032203;28;20419;-58
2023/04/24 07:05:43;;;;;;;2.10;2.10;;;;;;;;;;5030840;28;20475;-56
2023/04/24 07:08:11;;;;;;;2.60;2.50;;;;;;;;;;5032256;28;20389;-57
2023/04/24 07:10:40;;;;;;;3.40;2.40;;;;;;;;;;5032013;28;20503;-56
2023/04/24 07:13:06;;;;;;;3.37;2.97;;;;;;;;;;5032195;28;20442;-57
2023/04/24 07:15:35;;;;;;;3.00;2.63;;;;;;;;;;5032581;28;20412;-58
2023/04/24 07:18:04;;;;;;;7.43;2.77;;;;;;;;;;5032406;28;20493;-57
2023/04/24 07:20:30;;;;;;;2.77;2.57;;;;;;;;;;5032423;28;20416;-57
2023/04/24 07:22:56;;;;;;;2.37;2.27;;;;;;;;;;5031251;28;20458;-56
2023/04/24 07:25:22;;;;;;;2.47;2.37;;;;;;;;;;5032325;28;20420;-57
2023/04/24 07:27:48;;;;;;;2.10;2.10;;;;;;;;;;5032268;28;20470;-57
2023/04/24 07:30:14;;;;;;;2.43;2.27;;;;;;;;;;5032494;28;20438;-57
2023/04/24 07:32:40;;;;;;;2.40;2.30;;;;;;;;;;5032273;28;20915;-58
2023/04/24 07:35:06;;;;;;;2.17;2.17;;;;;;;;;;5032169;28;20423;-58
2023/04/24 07:37:32;;;;;;;2.17;2.07;;;;;;;;;;5032231;28;20485;-57
2023/04/24 07:39:58;;;;;;;2.57;2.53;;;;;;;;;;5032190;28;20411;-58
2023/04/24 07:42:25;;;;;;;2.60;2.60;;;;;;;;;;5032259;28;20408;-57
2023/04/24 07:44:51;;;;;;;2.50;1.73;;;;;;;;;;5032177;28;20420;-58
2023/04/24 07:47:19;;;;;;;3.37;3.17;;;;;;;;;;5032179;28;20638;-58
2023/04/24 07:49:45;;;;;;;3.03;2.27;;;;;;;;;;5032010;28;20418;-57
2023/04/24 07:52:11;;;;;;;2.83;2.73;;;;;;;;;;5032082;28;20510;-58
2023/04/24 07:54:37;;;;;;;1.90;1.80;;;;;;;;;;5032119;28;20392;-58
2023/04/24 07:57:04;;;;;;;2.53;2.10;;;;;;;;;;5032200;28;20872;-58
2023/04/24 07:59:30;;;;;;;2.33;2.23;;;;;;;;;;5032282;28;20400;-57
2023/04/24 08:01:56;;;;;;;2.50;2.10;;;;;;;;;;5032042;28;20918;-57
2023/04/24 08:04:24;;;;;;;2.40;2.20;;;;;;;;;;5031928;28;20479;-58
2023/04/24 08:06:50;;;;;;;2.90;2.80;;;;;;;;;;5035177;28;20467;-57
2023/04/24 08:09:16;;;;;;;3.00;2.77;;;;;;;;;;5035845;28;20426;-58
2023/04/24 08:11:42;;;;;;;3.90;2.67;;;;;;;;;;5035736;28;20775;-57
2023/04/24 08:14:08;;;;;;;2.63;2.40;;;;;;;;;;5036048;28;20495;-58
2023/04/24 08:16:35;;;;;;;6.10;2.37;;;;;;;;;;5035975;28;20419;-59
2023/04/24 08:19:01;;;;;;;5.70;2.37;;;;;;;;;;5034436;28;20439;-57
2023/04/24 08:21:27;;;;;;;2.27;2.17;;;;;;;;;;5035729;28;20416;-58
2023/04/24 08:23:56;;;;;;;2.30;2.20;;;;;;;;;;5034350;28;20424;-58
2023/04/24 08:26:24;;;;;;;2.37;1.50;;;;;;;;;;5035536;28;20558;-58
2023/04/24 08:28:50;;;;;;;2.80;2.07;;;;;;;;;;5035406;28;20435;-58
2023/04/24 08:31:16;;;;;;;1.53;1.43;;;;;;;;;;5035557;28;20416;-58
2023/04/24 08:33:45;;;;;;;1.50;1.37;;;;;;;;;;5035383;28;20938;-58
2023/04/24 08:36:11;;;;;;;1.43;1.40;;;;;;;;;;5035199;28;20527;-58
2023/04/24 08:38:38;;;;;;;4.63;1.70;;;;;;;;;;5035299;28;20471;-58
2023/04/24 08:41:04;;;;;;;3.57;2.00;;;;;;;;;;5035185;28;20435;-58
2023/04/24 08:43:32;;;;;;;1.23;1.23;;;;;;;;;;5035113;28;20811;-58
2023/04/24 08:45:59;;;;;;;2.40;1.67;;;;;;;;;;5035137;28;20490;-58
2023/04/24 08:48:25;;;;;;;2.33;1.77;;;;;;;;;;5033978;28;20454;-57
2023/04/24 08:50:51;;;;;;;2.60;1.60;;;;;;;;;;5035229;28;20507;-58
2023/04/24 08:53:18;;;;;;;2.37;1.67;;;;;;;;;;5034990;28;20416;-58
2023/04/24 08:55:44;;;;;;;1.73;1.63;;;;;;;;;;5035102;28;20478;-56
2023/04/24 08:58:10;;;;;;;1.60;1.50;;;;;;;;;;5034851;28;20432;-58
2023/04/24 09:00:37;;;;;;;1.40;1.30;;;;;;;;;;5033821;28;20435;-58
2023/04/24 09:03:03;;;;;;;2.30;1.37;;;;;;;;;;5034776;28;20446;-57
2023/04/24 09:05:33;;;;;;;1.80;1.43;;;;;;;;;;5033407;28;20471;-58
2023/04/24 09:08:00;;;;;;;1.50;1.50;;;;;;;;;;5034626;28;20490;-58
2023/04/24 09:10:27;;;;;;;3.47;1.50;;;;;;;;;;5035021;28;20418;-57
2023/04/24 09:12:54;;;;;;;1.07;1.07;;;;;;;;;;5034715;28;20432;-57
2023/04/24 09:15:21;;;;;;;1.50;1.40;;;;;;;;;;5033488;28;20427;-57
2023/04/24 09:17:47;;;;;;;2.40;1.70;;;;;;;;;;5032567;28;20444;-58
2023/04/24 09:20:14;;;;;;;3.17;1.23;;;;;;;;;;5034743;28;20392;-59
2023/04/24 09:22:40;;;;;;;2.23;1.60;;;;;;;;;;5034621;28;20937;-58
2023/04/24 09:25:07;;;;;;;1.60;1.60;;;;;;;;;;5034451;28;20462;-59
2023/04/24 09:27:33;;;;;;;2.53;1.50;;;;;;;;;;5034477;28;20418;-58
2023/04/24 09:30:02;;;;;;;2.40;1.20;;;;;;;;;;5034269;28;20400;-58
2023/04/24 09:32:31;;;;;;;1.33;1.23;;;;;;;;;;5034222;28;20518;-58
2023/04/24 09:35:11;;;;;;;3.80;1.20;;;;;;;;;;5034412;28;20408;-58
2023/04/24 09:37:44;;;;;;;1.60;1.50;;;;;;;;;;5034472;28;20474;-59
2023/04/24 09:40:12;;;;;;;3.40;1.70;;;;;;;;;;5034282;28;20384;-57
2023/04/24 09:42:38;;;;;;;1.37;1.37;;;;;;;;;;5034258;28;20824;-57
2023/04/24 09:45:06;;;;;;;1.30;1.20;;;;;;;;;;5034138;28;20923;-58
2023/04/24 09:47:39;;;;;;;4.13;1.30;;;;;;;;;;5034113;28;20939;-58
2023/04/24 09:50:11;;;;;;;1.27;1.27;;;;;;;;;;5033936;28;20419;-60
2023/04/24 09:52:40;;;;;;;2.57;1.80;;;;;;;;;;5034142;28;20514;-58
2023/04/24 09:55:11;;;;;;;1.07;1.00;;;;;;;;;;5033839;28;20424;-58
2023/04/24 09:57:47;;;;;;;1.73;1.00;;;;;;;;;;5033870;28;20507;-59
2023/04/24 10:00:13;;;;;;;2.47;1.27;;;;;;;;;;5033888;28;20764;-58
2023/04/24 10:02:39;;;;;;;0.70;0.70;;;;;;;;;;5033747;28;20447;-57
2023/04/24 10:05:05;;;;;;;1.90;1.03;;;;;;;;;;5033586;28;20423;-57
2023/04/24 10:07:33;;;;;;;3.27;0.80;;;;;;;;;;5033782;28;20464;-59
2023/04/24 10:10:00;;;;;;;1.20;1.10;;;;;;;;;;5033630;28;20432;-57
2023/04/24 10:12:25;;;;;;;0.70;0.70;;;;;;;;;;5032393;28;20470;-59
2023/04/24 10:14:51;;;;;;;1.57;1.10;;;;;;;;;;5033677;28;20468;-58
2023/04/24 10:17:18;;;;;;;1.83;1.33;;;;;;;;;;5033492;28;20507;-59
2023/04/24 10:19:44;;;;;;;0.80;0.80;;;;;;;;;;5033492;28;20490;-57
2023/04/24 10:22:10;;;;;;;0.70;0.70;;;;;;;;;;5033460;28;20412;-59
2023/04/24 10:24:38;;;;;;;2.30;1.00;;;;;;;;;;5033374;28;20938;-59
2023/04/24 10:27:04;;;;;;;0.63;0.63;;;;;;;;;;5033342;28;20464;-57
2023/04/24 10:29:31;;;;;;;0.90;0.70;;;;;;;;;;5032231;28;20468;-57
2023/04/24 10:31:59;;;;;;;0.80;0.80;;;;;;;;;;5033355;28;20389;-58
2023/04/24 10:34:25;;;;;;;0.90;0.90;;;;;;;;;;5033047;28;20447;-58
2023/04/24 10:36:53;;;;;;;1.33;1.00;;;;;;;;;;5033252;28;20420;-58
2023/04/24 10:39:20;;;;;;;1.43;1.33;;;;;;;;;;5033207;28;20470;-58
2023/04/24 10:41:51;;;;;;;1.20;1.10;;;;;;;;;;5033180;28;20415;-56
2023/04/24 10:44:17;;;;;;;1.27;1.10;;;;;;;;;;5032937;28;20841;-57
2023/04/24 10:46:44;;;;;;;0.93;0.93;;;;;;;;;;5033051;28;20739;-56
2023/04/24 10:49:10;;;;;;;1.63;0.90;;;;;;;;;;5033001;28;20574;-55
2023/04/24 10:51:53;;;;;;;1.53;0.77;;;;;;;;;;5032977;28;20448;-56
2023/04/24 10:54:22;;;;;;;0.87;0.87;;;;;;;;;;5032906;28;20436;-56
2023/04/24 10:56:51;;;;;;;1.10;1.10;;;;;;;;;;5032570;28;20990;-57
2023/04/24 10:59:37;;;;;;;3.40;1.30;;;;;;;;;;5032835;28;20444;-56
2023/04/24 11:02:08;;;;;;;0.90;0.90;;;;;;;;;;5032876;28;20424;-57
2023/04/24 11:04:35;;;;;;;1.20;1.10;;;;;;;;;;5032532;28;20446;-57
2023/04/24 11:07:01;;;;;;;1.27;1.27;;;;;;;;;;5032697;28;20456;-57
2023/04/24 11:09:36;;;;;;;1.17;1.07;;;;;;;;;;5032671;28;20431;-57
2023/04/24 11:12:06;;;;;;;1.20;1.00;;;;;;;;;;5032808;28;20450;-56
2023/04/24 11:14:52;;;;;;;1.00;0.90;;;;;;;;;;5032528;28;20531;-56
2023/04/24 11:17:37;;;;;;;9.43;0.90;;;;;;;;;;5032524;28;20470;-57
2023/04/24 11:20:07;;;;;;;0.93;0.93;;;;;;;;;;5032604;28;20439;-57
2023/04/24 11:22:36;;;;;;;1.13;1.03;;;;;;;;;;5032448;28;20423;-58
2023/04/24 11:25:03;;;;;;;1.27;1.20;;;;;;;;;;5032515;28;20440;-56
2023/04/24 11:27:48;;;;;;;1.37;1.27;;;;;;;;;;5031096;28;20471;-57
2023/04/24 11:30:17;;;;;;;1.57;1.10;;;;;;;;;;5031391;28;20436;-57
2023/04/24 11:32:43;;;;;;;1.10;1.00;;;;;;;;;;5032282;28;20429;-57
2023/04/24 11:35:14;;;;;;;1.40;1.30;;;;;;;;;;5032451;28;20523;-57
2023/04/24 11:37:45;;;;;;;1.10;1.10;;;;;;;;;;5032398;28;20470;-56
2023/04/24 11:40:15;;;;;;;3.33;1.20;;;;;;;;;;5033614;28;20448;-57
2023/04/24 11:42:42;;;;;;;1.53;1.53;;;;;;;;;;5036314;28;20424;-57
2023/04/24 11:45:12;;;;;;;1.03;1.00;;;;;;;;;;5036222;28;20862;-57
2023/04/24 11:47:38;;;;;;;1.00;1.00;;;;;;;;;;5036298;28;20912;-57
2023/04/24 11:50:06;;;;;;;5.10;1.60;;;;;;;;;;5036267;28;20436;-57
2023/04/24 11:52:32;;;;;;;1.37;1.27;;;;;;;;;;5036062;28;20519;-57
2023/04/24 11:54:58;;;;;;;1.23;0.97;;;;;;;;;;5035426;28;20455;-56
2023/04/24 11:57:27;;;;;;;1.30;1.20;;;;;;;;;;5035084;28;20871;-55
2023/04/24 11:59:53;;;;;;;1.40;1.30;;;;;;;;;;5036019;28;20919;-55
2023/04/24 12:02:25;;;;;;;1.40;1.30;;;;;;;;;;5036076;28;20438;-57
2023/04/24 12:04:52;;;;;;;2.60;1.53;;;;;;;;;;5035863;28;20507;-56
2023/04/24 12:07:18;;;;;;;1.00;1.00;;;;;;;;;;5035815;28;20485;-56
2023/04/24 12:09:46;;;;;;;2.10;1.27;;;;;;;;;;5035873;28;20798;-57
2023/04/24 12:12:16;;;;;;;2.93;0.90;;;;;;;;;;5035947;28;20973;-57
2023/04/24 12:14:49;;;;;;;0.90;0.90;;;;;;;;;;5035729;28;20798;-57
2023/04/24 12:17:15;;;;;;;1.20;1.03;;;;;;;;;;5035809;28;20412;-56
2023/04/24 12:19:50;;;;;;;3.50;1.03;;;;;;;;;;5035578;28;20447;-56
2023/04/24 12:22:16;;;;;;;1.50;1.07;;;;;;;;;;5035738;28;20495;-56
2023/04/24 12:24:59;;;;;;;1.13;1.10;;;;;;;;;;5034245;28;20447;-58
2023/04/24 12:27:25;;;;;;;1.13;1.03;;;;;;;;;;5035830;28;20470;-57
2023/04/24 12:29:52;;;;;;;1.10;1.10;;;;;;;;;;5035463;28;20444;-57
2023/04/24 12:32:18;;;;;;;0.80;0.80;;;;;;;;;;5035586;28;20397;-57
2023/04/24 12:34:44;;;;;;;2.40;1.23;;;;;;;;;;5035404;28;20420;-57
2023/04/24 12:37:11;;;;;;;1.20;1.20;;;;;;;;;;5035088;28;20437;-56
2023/04/24 12:39:39;;;;;;;1.53;1.30;;;;;;;;;;5034716;28;20443;-57
2023/04/24 12:42:05;;;;;;;2.33;1.10;;;;;;;;;;5035015;28;20433;-58
2023/04/24 12:44:34;;;;;;;1.43;1.20;;;;;;;;;;5034739;28;20413;-56
2023/04/24 12:47:02;;;;;;;1.00;1.00;;;;;;;;;;5015445;28;20528;-58
2023/04/24 12:49:28;;;;;;;1.87;0.93;;;;;;;;;;5015336;28;20419;-57
2023/04/24 12:51:54;;;;;;;2.47;1.40;;;;;;;;;;5013845;28;20403;-57
2023/04/24 12:54:20;;;;;;;3.03;1.00;;;;;;;;;;5014868;28;20418;-56
2023/04/24 12:56:49;;;;;;;1.20;1.20;;;;;;;;;;5014922;28;20439;-57
2023/04/24 12:59:17;;;;;;;5.90;1.17;;;;;;;;;;5014973;28;20779;-56
2023/04/24 13:01:43;;;;;;;1.23;1.13;;;;;;;;;;5014882;28;20956;-56
2023/04/24 13:04:09;;;;;;;1.20;1.20;;;;;;;;;;5014634;28;20412;-58
2023/04/24 13:06:35;;;;;;;1.20;1.20;;;;;;;;;;5014829;28;20485;-57
2023/04/24 13:09:03;;;;;;;4.20;1.20;;;;;;;;;;5014797;28;20430;-57
2023/04/24 13:11:29;;;;;;;1.17;1.07;;;;;;;;;;5014812;28;20416;-56
2023/04/24 13:13:55;;;;;;;1.20;1.20;;;;;;;;;;5014596;28;20419;-57
2023/04/24 13:16:22;;;;;;;2.10;1.10;;;;;;;;;;5014712;28;20420;-57
2023/04/24 13:18:48;;;;;;;1.23;1.23;;;;;;;;;;5014572;28;20498;-58
2023/04/24 13:21:14;;;;;;;1.40;1.00;;;;;;;;;;5014587;28;20883;-58
2023/04/24 13:23:41;;;;;;;0.93;0.93;;;;;;;;;;5014673;28;20443;-58
2023/04/24 13:26:07;;;;;;;1.47;1.30;;;;;;;;;;5014384;28;20590;-58
2023/04/24 13:28:33;;;;;;;1.20;1.20;;;;;;;;;;5014551;28;20465;-58
2023/04/24 13:31:01;;;;;;;2.87;1.30;;;;;;;;;;5014461;28;20768;-57
2023/04/24 13:33:27;;;;;;;1.20;1.20;;;;;;;;;;5014357;28;20900;-57
2023/04/24 13:35:53;;;;;;;4.73;1.30;;;;;;;;;;5014157;28;20440;-57
2023/04/24 13:38:22;;;;;;;1.00;1.00;;;;;;;;;;5014361;28;20517;-56
2023/04/24 13:40:48;;;;;;;4.40;1.60;;;;;;;;;;5014274;28;20474;-58
2023/04/24 13:43:14;;;;;;;1.20;1.20;;;;;;;;;;5014156;28;20492;-57
2023/04/24 13:45:42;;;;;;;1.10;1.10;;;;;;;;;;5012748;28;21020;-58
2023/04/24 13:48:09;;;;;;;1.33;1.23;;;;;;;;;;5014135;28;20397;-56
2023/04/24 13:50:35;;;;;;;1.63;1.53;;;;;;;;;;5014113;28;20915;-57
2023/04/24 13:53:01;;;;;;;1.93;1.60;;;;;;;;;;5013787;28;20426;-57
2023/04/24 13:55:27;;;;;;;3.33;1.70;;;;;;;;;;5012574;28;20443;-57
2023/04/24 13:57:54;;;;;;;3.03;1.40;;;;;;;;;;5013795;28;20431;-57
2023/04/24 14:00:23;;;;;;;4.30;1.53;;;;;;;;;;5013855;28;20438;-57
2023/04/24 14:02:49;;;;;;;3.17;1.40;;;;;;;;;;5013705;28;20470;-56
2023/04/24 14:05:15;;;;;;;1.80;1.70;;;;;;;;;;5013662;28;20419;-56
2023/04/24 14:07:41;;;;;;;1.80;1.70;;;;;;;;;;5013425;28;20811;-56
2023/04/24 14:10:09;;;;;;;1.37;1.27;;;;;;;;;;5013750;28;20530;-57
2023/04/24 14:12:35;;;;;;;1.97;1.87;;;;;;;;;;5013783;28;20804;-56
2023/04/24 14:15:01;;;;;;;1.50;1.50;;;;;;;;;;5013376;28;20407;-58
2023/04/24 14:17:27;;;;;;;4.23;1.60;;;;;;;;;;5013241;28;20904;-58
2023/04/24 14:19:56;;;;;;;2.20;1.40;;;;;;;;;;5011820;28;20447;-57
2023/04/24 14:22:21;;;;;;;1.60;1.50;;;;;;;;;;5013200;28;20500;-59
2023/04/24 14:24:47;;;;;;;1.53;1.50;;;;;;;;;;5013342;28;20528;-59
2023/04/24 14:27:13;;;;;;;1.20;1.20;;;;;;;;;;5013413;28;20470;-57
2023/04/24 14:29:39;;;;;;;1.67;1.57;;;;;;;;;;5013823;28;20498;-58
2023/04/24 14:32:06;;;;;;;1.20;1.20;;;;;;;;;;5013974;28;20419;-58
2023/04/24 14:34:32;;;;;;;2.83;1.67;;;;;;;;;;5013491;28;20418;-59
2023/04/24 14:36:58;;;;;;;2.20;1.40;;;;;;;;;;5013108;28;20453;-58
2023/04/24 14:39:24;;;;;;;2.40;1.50;;;;;;;;;;5013017;28;20419;-57
2023/04/24 14:41:50;;;;;;;1.30;1.30;;;;;;;;;;5012992;28;20455;-58
2023/04/24 14:44:19;;;;;;;1.23;1.23;;;;;;;;;;5012985;28;20440;-58